Huvudsida
METAR-TAF:

METAR-TAF

Flygplatser :

Stockholm-Västerås flygplats

Västerås, Sverige

latitud: 59-35N, longitud: 016-38E, höjd: 6 m

Aktuellt väderrapport

Denna rapport gjordes för 32 minuter sedan, klockan 12:20 UTC
Vind 14 kt från syd/sydväst
Temperatur 21°C
Fuktighet 46%
Tryck 1013 hPa
Sikt 10 km eller mer

METAR: ESOW 181220Z AUTO 21014KT 9999 FEW049/// 21/09 Q1013

Tid: 14:52 (12:52 UTC)

Väderprognos

Denna rapport gjordes för 21 timmar och 21 minuter sedan, klockan 15:31 UTC
Prognos gäller från 17 kl. 15 UTC till 17 kl. 17 UTC
Vind 10 kt från väst/nordväst
Sikt 10 km eller mer
Spridda moln på en höjd av 4000 ft, Högtornande cumulus.
Blir
från 17 kl. 15 UTC till 17 kl. 17 UTC
Vind 8 kt från sydväst

TAF: ESOW 171531Z 1715/1717 29010KT 9999 SCT040TCU BECMG 1715/1717 22008KT

Aktuella väderrapporter och prognoser från 4000 flygplatser (METAR- och TAF-rapporter).

De tillgängliga stationerna syns som gula och röda prickar på kartan.

För musen över prickarna för att se namnen på stationerna.

Klicka sedan för att få väderrapporter och prognoser.

För att ändra kartan: Klicka på de gröna knapparna med ett svart kors på för att zooma in; den gröna knappen med ett streck på för att zooma ut; eller på de gröna pilarna för angränsande kartor.


METAR-TAF: